Time;durP1;ratioP1;P1;durP2;ratioP2;P2;SDS_P1;SDS_P2;PMS_P1;PMS_P2;Temp;Humidity;BMP_temperature;BMP_pressure;BME280_temperature;BME280_humidity;BME280_pressure;Samples;Min_cycle;Max_cycle;Signal;HPM_P1;HPM_P2
2023/06/29 00:00:23;;;;;;;;;;;;;;;22.83;63.92;98005.63;5092454;28;19924;-71
2023/06/29 00:02:49;;;;;;;;;;;;;;;23.22;63.60;98001.38;5085849;28;19936;-71
2023/06/29 00:05:16;;;;;;;;;;;;;;;23.10;63.57;98001.41;5089344;28;19952;-71
2023/06/29 00:07:42;;;;;;;;;;;;;;;23.18;63.41;98005.91;5092702;28;20003;-71
2023/06/29 00:10:10;;;;;;;;;;;;;;;23.00;63.70;98008.09;5092491;28;19991;-71
2023/06/29 00:12:38;;;;;;;;;;;;;;;22.60;65.70;98010.66;5092285;28;19928;-71
2023/06/29 00:15:05;;;;;;;;;;;;;;;22.48;67.42;98002.47;5092572;28;19956;-71
2023/06/29 00:17:31;;;;;;;;;;;;;;;22.44;68.22;98007.00;5084416;28;19925;-71
2023/06/29 00:19:58;;;;;;;;;;;;;;;22.91;67.02;97993.81;5093401;28;19928;-71
2023/06/29 00:22:24;;;;;;;;;;;;;;;22.90;66.36;98000.38;5092030;28;20539;-71
2023/06/29 00:24:55;;;;;;;;;;;;;;;22.87;66.15;97998.34;5092618;28;20034;-71
2023/06/29 00:27:22;;;;;;;;;;;;;;;23.30;65.16;97995.03;5092336;28;19954;-71
2023/06/29 00:29:50;;;;;;;;;;;;;;;22.97;65.41;97999.81;5092039;28;19947;-71
2023/06/29 00:32:16;;;;;;;;;;;;;;;22.90;65.94;97999.59;5091755;28;19959;-71
2023/06/29 00:34:42;;;;;;;;;;;;;;;22.83;66.10;98002.09;5082064;28;19988;-71
2023/06/29 00:37:09;;;;;;;;;;;;;;;22.77;66.60;98006.19;5091732;28;19925;-71
2023/06/29 00:39:35;;;;;;;;;;;;;;;22.92;66.43;97995.41;5082246;28;19928;-71
2023/06/29 00:42:03;;;;;;;;;;;;;;;23.04;65.25;98002.75;5091716;28;20046;-71
2023/06/29 00:44:29;;;;;;;;;;;;;;;22.46;67.66;98002.03;5091619;28;19995;-71
2023/06/29 00:46:57;;;;;;;;;;;;;;;22.46;68.10;97995.78;5091692;28;20578;-71
2023/06/29 00:49:23;;;;;;;;;;;;;;;22.66;67.86;97994.13;5091394;28;20000;-71
2023/06/29 00:51:51;;;;;;;;;;;;;;;22.18;68.14;97992.91;5091271;28;19963;-71
2023/06/29 00:54:17;;;;;;;;;;;;;;;22.03;69.02;97988.09;5091204;28;19924;-71
2023/06/29 00:56:44;;;;;;;;;;;;;;;21.90;71.20;97989.19;5091389;28;19935;-71
2023/06/29 00:59:10;;;;;;;;;;;;;;;21.98;71.15;97985.56;5091348;28;19960;-71
2023/06/29 01:01:38;;;;;;;;;;;;;;;22.91;67.30;97985.63;5091169;28;20027;-71
2023/06/29 01:04:06;;;;;;;;;;;;;;;23.15;64.95;97994.94;5091036;28;19925;-71
2023/06/29 01:06:35;;;;;;;;;;;;;;;23.32;64.14;97992.75;5091250;28;19924;-71
2023/06/29 01:09:04;;;;;;;;;;;;;;;23.39;63.31;97998.44;5090962;28;19960;-71
2023/06/29 01:11:31;;;;;;;;;;;;;;;23.60;62.05;97996.34;5091008;28;19935;-71
2023/06/29 01:13:57;;;;;;;;;;;;;;;23.63;61.33;97989.38;5081050;28;19963;-71
2023/06/29 01:16:24;;;;;;;;;;;;;;;23.69;60.92;97987.22;5091002;28;19987;-69
2023/06/29 01:18:52;;;;;;;;;;;;;;;23.77;60.51;97989.00;5090940;28;19924;-70
2023/06/29 01:21:21;;;;;;;;;;;;;;;23.64;60.49;97991.75;5090682;28;19952;-70
2023/06/29 01:23:47;;;;;;;;;;;;;;;23.52;60.63;97983.63;5090704;28;19966;-70
2023/06/29 01:26:15;;;;;;;;;;;;;;;23.49;60.77;97980.78;5090929;28;20374;-70
2023/06/29 01:28:42;;;;;;;;;;;;;;;23.25;61.15;97989.00;5082949;28;19935;-70
2023/06/29 01:31:09;;;;;;;;;;;;;;;23.34;61.03;97978.75;5091064;28;19966;-70
2023/06/29 01:33:36;;;;;;;;;;;;;;;23.43;60.57;97984.88;5090985;28;19925;-70
2023/06/29 01:36:07;;;;;;;;;;;;;;;23.32;60.53;97986.50;5090825;28;20000;-70
2023/06/29 01:38:37;;;;;;;;;;;;;;;23.29;60.61;97987.19;5090608;28;20467;-70
2023/06/29 01:41:06;;;;;;;;;;;;;;;23.32;60.60;97986.50;5090720;28;19924;-70
2023/06/29 01:43:35;;;;;;;;;;;;;;;23.42;60.35;97989.56;5090650;28;19935;-70
2023/06/29 01:46:02;;;;;;;;;;;;;;;23.55;59.84;97987.59;5090623;28;19932;-70
2023/06/29 01:48:28;;;;;;;;;;;;;;;23.44;59.66;97981.84;5081159;28;19925;-70
2023/06/29 01:50:55;;;;;;;;;;;;;;;23.11;60.52;97984.72;5090633;28;19931;-69
2023/06/29 01:53:21;;;;;;;;;;;;;;;22.71;61.54;97988.47;5090267;28;19963;-70
2023/06/29 01:55:47;;;;;;;;;;;;;;;22.40;62.83;97984.34;5090227;28;19925;-70
2023/06/29 01:58:14;;;;;;;;;;;;;;;22.10;63.92;97984.84;5080890;28;19925;-70
2023/06/29 02:00:42;;;;;;;;;;;;;;;22.15;64.94;97988.13;5082157;28;19992;-70
2023/06/29 02:03:08;;;;;;;;;;;;;;;22.26;64.05;97986.56;5090274;28;19984;-70
2023/06/29 02:05:34;;;;;;;;;;;;;;;22.34;64.20;97990.34;5090174;28;19956;-70
2023/06/29 02:08:01;;;;;;;;;;;;;;;22.33;64.72;97989.53;5090138;28;19925;-70
2023/06/29 02:10:27;;;;;;;;;;;;;;;22.54;64.00;97984.78;5090131;28;19924;-70
2023/06/29 02:12:54;;;;;;;;;;;;;;;22.78;62.69;97985.97;5090524;28;19925;-71
2023/06/29 02:15:20;;;;;;;;;;;;;;;22.67;62.27;97987.56;5080478;28;19928;-70
2023/06/29 02:17:48;;;;;;;;;;;;;;;22.74;62.26;97991.31;5090135;28;19924;-71
2023/06/29 02:20:14;;;;;;;;;;;;;;;22.80;62.27;97984.50;5085907;28;20000;-71
2023/06/29 02:22:40;;;;;;;;;;;;;;;22.47;62.67;97990.00;5082010;28;19928;-71
2023/06/29 02:25:11;;;;;;;;;;;;;;;22.38;63.00;97989.31;5090365;28;20572;-71
2023/06/29 02:27:37;;;;;;;;;;;;;;;22.24;63.32;97980.69;5093844;28;19924;-71
2023/06/29 02:30:04;;;;;;;;;;;;;;;22.10;63.86;97985.63;5093958;28;19970;-71
2023/06/29 02:32:30;;;;;;;;;;;;;;;22.10;64.48;97991.06;5093960;28;19928;-71
2023/06/29 02:34:58;;;;;;;;;;;;;;;21.98;64.53;97982.84;5093948;28;19983;-71
2023/06/29 02:37:24;;;;;;;;;;;;;;;21.73;65.60;97984.66;5084401;28;20023;-71
2023/06/29 02:39:51;;;;;;;;;;;;;;;21.60;66.25;97982.25;5093809;28;19992;-71
2023/06/29 02:42:17;;;;;;;;;;;;;;;22.02;65.71;97986.50;5094058;28;19966;-71
2023/06/29 02:44:44;;;;;;;;;;;;;;;21.93;65.52;97977.63;5094093;28;19992;-71
2023/06/29 02:47:10;;;;;;;;;;;;;;;22.18;65.02;97984.75;5093773;28;19936;-71
2023/06/29 02:49:36;;;;;;;;;;;;;;;22.38;64.41;97981.13;5093580;28;19943;-71
2023/06/29 02:52:05;;;;;;;;;;;;;;;22.30;64.45;97982.03;5079186;28;19976;-71
2023/06/29 02:54:31;;;;;;;;;;;;;;;21.49;66.57;97984.56;5093589;28;19931;-71
2023/06/29 02:56:57;;;;;;;;;;;;;;;21.19;70.12;97985.75;5093352;28;19959;-71
2023/06/29 02:59:24;;;;;;;;;;;;;;;21.09;71.11;97980.69;5093747;28;19932;-71
2023/06/29 03:01:50;;;;;;;;;;;;;;;21.22;70.78;97985.88;5093854;28;19952;-71
2023/06/29 03:04:16;;;;;;;;;;;;;;;21.48;69.82;97978.31;5094313;28;19924;-71
2023/06/29 03:06:43;;;;;;;;;;;;;;;21.80;68.36;97978.69;5094170;28;19924;-71
2023/06/29 03:09:10;;;;;;;;;;;;;;;21.99;67.08;97977.09;5084967;28;19991;-71
2023/06/29 03:11:37;;;;;;;;;;;;;;;22.10;66.30;97985.63;5093074;28;19924;-71
2023/06/29 03:14:03;;;;;;;;;;;;;;;22.27;65.29;97982.72;5083973;28;19959;-71
2023/06/29 03:16:29;;;;;;;;;;;;;;;22.23;65.19;97981.00;5093163;28;19987;-71
2023/06/29 03:18:56;;;;;;;;;;;;;;;22.18;64.99;97981.22;5093268;28;19987;-71
2023/06/29 03:21:22;;;;;;;;;;;;;;;22.14;65.17;97983.81;5093043;28;19959;-71
2023/06/29 03:23:49;;;;;;;;;;;;;;;22.32;64.67;97978.97;5093078;28;19952;-71
2023/06/29 03:26:17;;;;;;;;;;;;;;;22.50;63.65;97981.16;5093030;28;19928;-71
2023/06/29 03:28:43;;;;;;;;;;;;;;;22.63;63.16;97986.59;5092890;28;19925;-71
2023/06/29 03:31:09;;;;;;;;;;;;;;;22.76;62.51;97980.06;5093001;28;19992;-71
2023/06/29 03:33:36;;;;;;;;;;;;;;;22.53;62.91;97976.97;5092870;28;19971;-71
2023/06/29 03:36:03;;;;;;;;;;;;;;;22.06;64.04;97984.72;5083406;28;20358;-71
2023/06/29 03:38:29;;;;;;;;;;;;;;;22.08;64.65;97977.00;5091974;28;19924;-71
2023/06/29 03:40:55;;;;;;;;;;;;;;;22.33;63.83;97966.97;5092782;28;19925;-71
2023/06/29 03:43:23;;;;;;;;;;;;;;;22.40;63.59;97970.72;5092946;28;19925;-71
2023/06/29 03:45:50;;;;;;;;;;;;;;;22.14;63.63;97972.94;5083207;28;20023;-71
2023/06/29 03:48:16;;;;;;;;;;;;;;;21.83;65.14;97962.50;5092787;28;19955;-71
2023/06/29 03:50:42;;;;;;;;;;;;;;;21.70;65.82;97968.22;5092509;28;19963;-71
2023/06/29 03:53:09;;;;;;;;;;;;;;;21.74;66.43;97971.88;5092605;28;19930;-71
2023/06/29 03:55:35;;;;;;;;;;;;;;;21.70;66.69;97979.88;5092421;28;19985;-71
2023/06/29 03:58:02;;;;;;;;;;;;;;;21.71;66.87;97969.81;5083050;28;19924;-71
2023/06/29 04:00:29;;;;;;;;;;;;;;;22.05;66.06;97974.97;5092412;28;19987;-70
2023/06/29 04:02:56;;;;;;;;;;;;;;;22.39;64.55;97974.56;5092269;28;19936;-70
2023/06/29 04:05:22;;;;;;;;;;;;;;;22.21;64.99;97975.91;5082852;28;19925;-70
2023/06/29 04:07:48;;;;;;;;;;;;;;;22.25;65.19;97971.38;5092241;28;19959;-70
2023/06/29 04:10:15;;;;;;;;;;;;;;;22.32;64.81;97977.06;5092319;28;20357;-70
2023/06/29 04:12:41;;;;;;;;;;;;;;;22.45;64.42;97983.31;5092532;28;19950;-70
2023/06/29 04:15:08;;;;;;;;;;;;;;;22.42;64.07;97975.81;5083684;28;19960;-70
2023/06/29 04:17:36;;;;;;;;;;;;;;;22.47;63.92;97975.59;5090263;28;19959;-70
2023/06/29 04:20:03;;;;;;;;;;;;;;;22.49;63.90;97982.31;5082341;28;20342;-70
2023/06/29 04:22:29;;;;;;;;;;;;;;;21.94;65.08;97976.53;5091773;28;19983;-70
2023/06/29 04:24:56;;;;;;;;;;;;;;;21.52;67.51;97973.81;5092155;28;19924;-70
2023/06/29 04:27:22;;;;;;;;;;;;;;;21.83;66.88;97969.84;5091664;28;19924;-70
2023/06/29 04:29:49;;;;;;;;;;;;;;;21.84;67.20;97972.25;5091836;28;19943;-70
2023/06/29 04:32:15;;;;;;;;;;;;;;;21.93;66.61;97970.28;5091718;28;19947;-71
2023/06/29 04:34:43;;;;;;;;;;;;;;;22.24;65.73;97972.50;5091682;28;19997;-71
2023/06/29 04:37:10;;;;;;;;;;;;;;;22.42;64.50;97973.09;5082828;28;19924;-70
2023/06/29 04:39:36;;;;;;;;;;;;;;;22.52;64.09;97970.75;5091038;28;19928;-70
2023/06/29 04:42:04;;;;;;;;;;;;;;;22.57;63.74;97967.78;5091777;28;19925;-70
2023/06/29 04:44:32;;;;;;;;;;;;;;;22.65;63.64;97974.31;5091552;28;19925;-70
2023/06/29 04:46:59;;;;;;;;;;;;;;;22.64;63.64;97974.59;5091697;28;19973;-70
2023/06/29 04:49:27;;;;;;;;;;;;;;;22.67;63.43;97969.31;5091841;28;19925;-71
2023/06/29 04:51:55;;;;;;;;;;;;;;;22.33;64.43;97965.03;5091570;28;20341;-70
2023/06/29 04:54:21;;;;;;;;;;;;;;;22.25;64.99;97960.47;5081922;28;20015;-71
2023/06/29 04:56:48;;;;;;;;;;;;;;;22.18;65.71;97962.19;5091312;28;19978;-71
2023/06/29 04:59:14;;;;;;;;;;;;;;;21.92;66.54;97965.97;5091417;28;19925;-70
2023/06/29 05:01:41;;;;;;;;;;;;;;;21.42;69.46;97960.63;5083217;28;19928;-70
2023/06/29 05:04:07;;;;;;;;;;;;;;;21.23;72.47;97963.00;5091309;28;19924;-70
2023/06/29 05:06:34;;;;;;;;;;;;;;;21.35;73.04;97965.00;5091136;28;19924;-70
2023/06/29 05:09:01;;;;;;;;;;;;;;;21.38;72.69;97956.19;5090892;28;19931;-69
2023/06/29 05:11:28;;;;;;;;;;;;;;;20.85;77.57;97954.13;5091095;28;19924;-69
2023/06/29 05:13:54;;;;;;;;;;;;;;;20.90;77.92;97956.66;5091096;28;19928;-69
2023/06/29 05:16:20;;;;;;;;;;;;;;;20.28;83.04;97957.25;5090808;28;19991;-69
2023/06/29 05:18:47;;;;;;;;;;;;;;;19.83;88.89;97958.78;5085195;28;19996;-69
2023/06/29 05:21:15;;;;;;;;;;;;;;;19.86;90.35;97966.28;5086634;28;20370;-70
2023/06/29 05:23:41;;;;;;;;;;;;;;;20.28;87.15;97962.69;5091021;28;20389;-70
2023/06/29 05:26:09;;;;;;;;;;;;;;;20.44;87.00;97963.75;5090995;28;19992;-70
2023/06/29 05:28:35;;;;;;;;;;;;;;;20.63;84.07;97959.84;5091013;28;19956;-71
2023/06/29 05:31:02;;;;;;;;;;;;;;;20.02;88.70;97961.94;5091054;28;19935;-71
2023/06/29 05:33:28;;;;;;;;;;;;;;;19.84;91.53;97963.06;5090838;28;19925;-70
2023/06/29 05:35:55;;;;;;;;;;;;;;;20.09;91.25;97959.53;5090623;28;19990;-71
2023/06/29 05:38:21;;;;;;;;;;;;;;;20.20;91.94;97965.41;5090814;28;19936;-71
2023/06/29 05:40:47;;;;;;;;;;;;;;;20.36;90.04;97963.78;5090664;28;20328;-69
2023/06/29 05:43:15;;;;;;;;;;;;;;;20.54;88.52;97959.09;5090758;28;19961;-70
2023/06/29 05:45:41;;;;;;;;;;;;;;;20.96;84.53;97952.63;5083654;28;19951;-69
2023/06/29 05:48:08;;;;;;;;;;;;;;;21.42;80.77;97952.47;5091157;28;19987;-70
2023/06/29 05:50:34;;;;;;;;;;;;;;;21.73;77.76;97962.91;5081834;28;19924;-70
2023/06/29 05:53:01;;;;;;;;;;;;;;;21.46;77.75;97955.31;5091199;28;20388;-70
2023/06/29 05:55:27;;;;;;;;;;;;;;;21.37;78.22;97955.41;5091177;28;19925;-71
2023/06/29 05:57:53;;;;;;;;;;;;;;;21.62;77.52;97959.03;5090941;28;19925;-70
2023/06/29 06:00:21;;;;;;;;;;;;;;;21.59;77.08;97958.91;5091185;28;19932;-70
2023/06/29 06:02:48;;;;;;;;;;;;;;;20.64;81.76;97969.56;5095077;28;19978;-70
2023/06/29 06:05:14;;;;;;;;;;;;;;;20.55;85.91;97953.31;5095492;28;19931;-69
2023/06/29 06:07:40;;;;;;;;;;;;;;;21.06;83.29;97960.38;5086764;28;20222;-70
2023/06/29 06:10:07;;;;;;;;;;;;;;;21.12;82.24;97959.09;5095552;28;19967;-70
2023/06/29 06:12:33;;;;;;;;;;;;;;;21.39;81.02;97958.56;5095350;28;19925;-70
2023/06/29 06:15:00;;;;;;;;;;;;;;;22.13;76.45;97957.75;5095736;28;19924;-70
2023/06/29 06:17:28;;;;;;;;;;;;;;;22.29;74.81;97955.97;5093812;28;19924;-70
2023/06/29 06:19:54;;;;;;;;;;;;;;;22.16;74.89;97961.75;5095306;28;20007;-70
2023/06/29 06:22:21;;;;;;;;;;;;;;;21.92;76.57;97955.09;5094564;28;19924;-70
2023/06/29 06:24:47;;;;;;;;;;;;;;;21.64;78.86;97953.25;5094799;28;19946;-71
2023/06/29 06:27:13;;;;;;;;;;;;;;;21.66;79.89;97959.16;5085784;28;20359;-70
2023/06/29 06:29:40;;;;;;;;;;;;;;;22.00;78.46;97956.13;5095140;28;19925;-70
2023/06/29 06:32:06;;;;;;;;;;;;;;;22.23;77.18;97954.59;5085312;28;19947;-70
2023/06/29 06:34:34;;;;;;;;;;;;;;;22.19;77.07;97944.75;5094717;28;19960;-70
2023/06/29 06:37:01;;;;;;;;;;;;;;;22.20;77.38;97940.88;5094466;28;19982;-70
2023/06/29 06:39:27;;;;;;;;;;;;;;;21.81;78.52;97940.31;5094423;28;19931;-69
2023/06/29 06:41:54;;;;;;;;;;;;;;;21.77;79.99;97944.00;5094163;28;19930;-70
2023/06/29 06:44:20;;;;;;;;;;;;;;;21.76;80.75;97947.84;5093018;28;19996;-70
2023/06/29 06:46:47;;;;;;;;;;;;;;;22.33;77.87;97946.00;5088525;28;19925;-70
2023/06/29 06:49:13;;;;;;;;;;;;;;;22.42;76.77;97951.34;5102660;28;19925;-71
2023/06/29 06:51:41;;;;;;;;;;;;;;;22.31;76.86;97945.53;5093806;28;19924;-72
2023/06/29 06:54:07;;;;;;;;;;;;;;;22.10;77.54;97946.75;5093855;28;19963;-71
2023/06/29 06:56:34;;;;;;;;;;;;;;;21.92;78.87;97949.66;5093849;28;19924;-71
2023/06/29 06:59:00;;;;;;;;;;;;;;;21.97;79.53;97945.94;5093798;28;19988;-71
2023/06/29 07:01:27;;;;;;;;;;;;;;;21.54;82.79;97944.38;5093859;28;19983;-71
2023/06/29 07:03:53;;;;;;;;;;;;;;;21.72;82.24;97938.78;5084176;28;19935;-71
2023/06/29 07:06:19;;;;;;;;;;;;;;;21.53;83.05;97944.72;5084356;28;19946;-71
2023/06/29 07:08:47;;;;;;;;;;;;;;;21.46;83.50;97936.31;5093493;28;19976;-71
2023/06/29 07:11:14;;;;;;;;;;;;;;;21.72;82.60;97938.78;5083941;28;19931;-71
2023/06/29 07:13:40;;;;;;;;;;;;;;;21.85;81.43;97945.88;5091900;28;19925;-70
2023/06/29 07:16:06;;;;;;;;;;;;;;;21.91;80.20;97942.59;5093021;28;19924;-71
2023/06/29 07:18:35;;;;;;;;;;;;;;;21.90;81.70;97940.25;5092923;28;20628;-71
2023/06/29 07:21:02;;;;;;;;;;;;;;;22.11;80.16;97945.59;5091690;28;19996;-70
2023/06/29 07:23:28;;;;;;;;;;;;;;;22.35;77.03;97935.56;5092806;28;19924;-70
2023/06/29 07:25:56;;;;;;;;;;;;;;;22.57;77.01;97926.16;5092896;28;19924;-71
2023/06/29 07:28:22;;;;;;;;;;;;;;;22.65;76.09;97929.91;5092831;28;19925;-71
2023/06/29 07:30:50;;;;;;;;;;;;;;;22.46;76.01;97935.91;5092455;28;20389;-71
2023/06/29 07:33:16;;;;;;;;;;;;;;;22.25;77.15;97935.22;5092658;28;19928;-70
2023/06/29 07:35:43;;;;;;;;;;;;;;;22.31;77.07;97929.19;5092777;28;19928;-70
2023/06/29 07:38:09;;;;;;;;;;;;;;;22.24;74.55;97934.44;5092690;28;19931;-70
2023/06/29 07:40:35;;;;;;;;;;;;;;;22.06;77.78;97924.88;5092512;28;20286;-70
2023/06/29 07:43:03;;;;;;;;;;;;;;;22.13;79.17;97929.78;5092583;28;19935;-70
2023/06/29 07:45:30;;;;;;;;;;;;;;;22.32;77.70;97930.78;5092524;28;19924;-70
2023/06/29 07:47:56;;;;;;;;;;;;;;;22.56;76.88;97921.88;5083030;28;19925;-70
2023/06/29 07:50:22;;;;;;;;;;;;;;;23.57;70.64;97909.78;5082738;28;19929;-70
2023/06/29 07:52:50;;;;;;;;;;;;;;;23.13;70.26;97918.97;5092439;28;19947;-71
2023/06/29 07:55:16;;;;;;;;;;;;;;;23.35;69.56;97917.66;5092691;28;19975;-71
2023/06/29 07:57:42;;;;;;;;;;;;;;;23.04;70.32;97907.44;5092454;28;20668;-71
2023/06/29 08:00:11;;;;;;;;;;;;;;;22.93;71.54;97914.50;5092451;28;19932;-71
2023/06/29 08:02:37;;;;;;;;;;;;;;;23.26;71.65;97900.66;5092488;28;20004;-70
2023/06/29 08:05:04;;;;;;;;;;;;;;;24.13;67.64;97907.00;5092664;28;19930;-71
2023/06/29 08:07:30;;;;;;;;;;;;;;;23.53;67.04;97900.72;5092451;28;20392;-71
2023/06/29 08:09:57;;;;;;;;;;;;;;;23.76;67.68;97902.88;5092549;28;19955;-72
2023/06/29 08:12:25;;;;;;;;;;;;;;;23.34;68.03;97895.06;5092537;28;20163;-71
2023/06/29 08:14:51;;;;;;;;;;;;;;;23.52;67.42;97893.66;5092384;28;19924;-71
2023/06/29 08:17:19;;;;;;;;;;;;;;;23.43;66.96;97889.50;5082567;28;19936;-71
2023/06/29 08:19:45;;;;;;;;;;;;;;;23.55;64.87;97895.69;5091946;28;19984;-71
2023/06/29 08:22:11;;;;;;;;;;;;;;;23.47;63.86;97902.09;5087663;28;19984;-71
2023/06/29 08:24:38;;;;;;;;;;;;;;;23.82;64.89;97890.56;5091287;28;19995;-71
2023/06/29 08:27:04;;;;;;;;;;;;;;;23.75;63.84;97887.66;5091980;28;19966;-71
2023/06/29 08:29:31;;;;;;;;;;;;;;;24.52;62.91;97889.66;5091824;28;19931;-71
2023/06/29 08:31:57;;;;;;;;;;;;;;;25.15;61.30;97893.06;5091810;28;19931;-71
2023/06/29 08:34:25;;;;;;;;;;;;;;;25.60;60.09;97888.88;5091733;28;19960;-70
2023/06/29 08:36:51;;;;;;;;;;;;;;;24.99;58.12;97891.50;5092752;28;19924;-70
2023/06/29 08:39:18;;;;;;;;;;;;;;;24.94;59.91;97883.59;5091820;28;19924;-70
2023/06/29 08:41:44;;;;;;;;;;;;;;;25.22;57.80;97886.94;5091762;28;19982;-71
2023/06/29 08:44:11;;;;;;;;;;;;;;;24.52;58.71;97881.47;5092122;28;19996;-71
2023/06/29 08:46:38;;;;;;;;;;;;;;;25.09;59.43;97880.03;5091657;28;19942;-71
2023/06/29 08:49:07;;;;;;;;;;;;;;;24.63;58.91;97879.75;5091867;28;19946;-71
2023/06/29 08:51:37;;;;;;;;;;;;;;;24.39;58.33;97874.50;5091672;28;20575;-71
2023/06/29 08:54:04;;;;;;;;;;;;;;;24.56;58.95;97874.16;5091530;28;20049;-72
2023/06/29 08:56:31;;;;;;;;;;;;;;;24.05;60.13;97875.19;5091813;28;19931;-72
2023/06/29 08:58:57;;;;;;;;;;;;;;;24.18;60.83;97874.00;5084519;28;19931;-71
2023/06/29 09:01:24;;;;;;;;;;;;;;;24.33;61.11;97866.94;5089397;28;19963;-73
2023/06/29 09:03:51;;;;;;;;;;;;;;;24.30;59.29;97870.38;5082168;28;19924;-71
2023/06/29 09:06:18;;;;;;;;;;;;;;;24.34;59.82;97858.41;5091554;28;19924;-72
2023/06/29 09:08:46;;;;;;;;;;;;;;;24.26;60.67;97862.13;5086463;28;19925;-72
2023/06/29 09:11:12;;;;;;;;;;;;;;;24.10;60.39;97861.31;5100233;28;19983;-71
2023/06/29 09:13:39;;;;;;;;;;;;;;;24.46;59.63;97869.22;5091320;28;19947;-72
2023/06/29 09:16:06;;;;;;;;;;;;;;;24.36;58.87;97849.84;5082834;28;19924;-72
2023/06/29 09:18:34;;;;;;;;;;;;;;;25.21;58.66;97850.63;5082354;28;19924;-72
2023/06/29 09:21:01;;;;;;;;;;;;;;;25.26;58.23;97849.53;5090470;28;19974;-72
2023/06/29 09:23:28;;;;;;;;;;;;;;;24.94;56.42;97842.63;5091972;28;20140;-72
2023/06/29 09:25:57;;;;;;;;;;;;;;;24.98;55.99;97851.66;5092300;28;19935;-72
2023/06/29 09:28:23;;;;;;;;;;;;;;;24.96;56.50;97851.25;5092088;28;19975;-72
2023/06/29 09:30:50;;;;;;;;;;;;;;;26.22;55.74;97839.22;5091401;28;19951;-71
2023/06/29 09:33:18;;;;;;;;;;;;;;;25.93;54.33;97848.09;5091371;28;20016;-71
2023/06/29 09:35:45;;;;;;;;;;;;;;;25.65;54.51;97842.91;5090736;28;19931;-72
2023/06/29 09:38:12;;;;;;;;;;;;;;;25.43;54.26;97835.44;5081653;28;19931;-72
2023/06/29 09:40:48;;;;;;;;;;;;;;;25.72;54.09;97831.28;5091114;28;19924;-72
2023/06/29 09:43:17;;;;;;;;;;;;;;;25.31;53.68;97827.38;5090137;28;19931;-72
2023/06/29 09:45:43;;;;;;;;;;;;;;;25.11;53.36;97825.78;5081835;28;20011;-71
2023/06/29 09:48:12;;;;;;;;;;;;;;;24.97;53.16;97825.53;5090545;28;19971;-71
2023/06/29 09:50:38;;;;;;;;;;;;;;;26.10;53.63;97824.91;5090009;28;19948;-71
2023/06/29 09:53:07;;;;;;;;;;;;;;;26.57;52.07;97822.56;5082247;28;20302;-71
2023/06/29 09:55:37;;;;;;;;;;;;;;;26.32;51.36;97815.91;5089398;28;19952;-72
2023/06/29 09:58:04;;;;;;;;;;;;;;;26.80;51.71;97820.53;5090294;28;19935;-71
2023/06/29 10:00:32;;;;;;;;;;;;;;;27.07;50.63;97815.03;5080424;28;20024;-71
2023/06/29 10:02:59;;;;;;;;;;;;;;;27.02;50.64;97799.69;5090329;28;19924;-71
2023/06/29 10:05:29;;;;;;;;;;;;;;;26.66;50.38;97806.63;5090299;28;19924;-71
2023/06/29 10:07:56;;;;;;;;;;;;;;;26.51;48.73;97798.59;5090344;28;19944;-71
2023/06/29 10:10:25;;;;;;;;;;;;;;;26.89;50.58;97801.09;5090351;28;19952;-71
2023/06/29 10:12:54;;;;;;;;;;;;;;;26.34;48.41;97794.41;5084139;28;19935;-71
2023/06/29 10:15:22;;;;;;;;;;;;;;;26.13;48.46;97797.59;5087316;28;19925;-71
2023/06/29 10:17:53;;;;;;;;;;;;;;;26.17;49.46;97797.69;5089948;28;19924;-71
2023/06/29 10:20:21;;;;;;;;;;;;;;;26.21;49.72;97790.34;5089932;28;19924;-71
2023/06/29 10:22:48;;;;;;;;;;;;;;;25.80;47.21;97799.38;5090223;28;20333;-71
2023/06/29 10:25:17;;;;;;;;;;;;;;;25.64;47.57;97796.78;5089822;28;19967;-71
2023/06/29 10:27:44;;;;;;;;;;;;;;;26.37;48.86;97790.19;5082268;28;20001;-71
2023/06/29 10:30:10;;;;;;;;;;;;;;;26.55;48.43;97788.47;5090119;28;19947;-71
2023/06/29 10:32:37;;;;;;;;;;;;;;;26.59;47.31;97786.56;5089984;28;19951;-71
2023/06/29 10:35:05;;;;;;;;;;;;;;;26.44;47.74;97791.06;5089975;28;19929;-71
2023/06/29 10:37:32;;;;;;;;;;;;;;;26.40;48.17;97783.97;5090081;28;19933;-71
2023/06/29 10:39:59;;;;;;;;;;;;;;;26.12;48.59;97789.78;5090237;28;19924;-71
2023/06/29 10:42:46;;;;;;;;;;;;;;;26.10;47.85;97775.66;5090225;28;19924;-71
2023/06/29 10:45:32;;;;;;;;;;;;;;;26.22;48.17;97770.00;5089962;28;19924;-71
2023/06/29 10:48:05;;;;;;;;;;;;;;;26.68;48.65;97768.69;5086807;28;19932;-72
2023/06/29 10:50:35;;;;;;;;;;;;;;;27.21;47.60;97752.91;5093643;28;19954;-73
2023/06/29 10:53:03;;;;;;;;;;;;;;;26.95;46.47;97760.44;5093786;28;19992;-71
2023/06/29 10:55:38;;;;;;;;;;;;;;;26.77;46.63;97757.44;5083748;28;19924;-70
2023/06/29 10:58:07;;;;;;;;;;;;;;;26.57;46.63;97761.50;5093383;28;19924;-71
2023/06/29 11:00:34;;;;;;;;;;;;;;;26.45;46.07;97765.25;5093454;28;19936;-71
2023/06/29 11:03:00;;;;;;;;;;;;;;;26.23;46.57;97761.44;5093786;28;20339;-72
2023/06/29 11:05:28;;;;;;;;;;;;;;;26.68;47.27;97752.25;5093492;28;19925;-72
2023/06/29 11:07:57;;;;;;;;;;;;;;;27.08;46.66;97750.81;5093367;28;19996;-74
2023/06/29 11:10:23;;;;;;;;;;;;;;;26.86;46.39;97738.03;5093547;28;19984;-73
2023/06/29 11:12:50;;;;;;;;;;;;;;;26.45;46.46;97750.78;5087649;28;19925;-73
2023/06/29 11:15:17;;;;;;;;;;;;;;;26.66;47.38;97740.88;5090026;28;19931;-73
2023/06/29 11:17:44;;;;;;;;;;;;;;;26.77;47.01;97744.53;5093193;28;20004;-74
2023/06/29 11:20:12;;;;;;;;;;;;;;;26.98;46.60;97743.25;5093274;28;19952;-73
2023/06/29 11:22:38;;;;;;;;;;;;;;;26.76;46.52;97744.94;5092311;28;19925;-73
2023/06/29 11:25:07;;;;;;;;;;;;;;;26.68;46.43;97738.56;5093430;28;19924;-74
2023/06/29 11:27:33;;;;;;;;;;;;;;;26.73;46.48;97731.97;5093207;28;19924;-73
2023/06/29 11:30:00;;;;;;;;;;;;;;;26.69;46.90;97720.16;5093218;28;19924;-73
2023/06/29 11:32:26;;;;;;;;;;;;;;;26.59;46.93;97720.81;5093151;28;19967;-73
2023/06/29 11:34:59;;;;;;;;;;;;;;;26.60;46.79;97720.47;5093481;28;19924;-71
2023/06/29 11:37:26;;;;;;;;;;;;;;;26.66;46.59;97720.91;5093124;28;19924;-71
2023/06/29 11:39:53;;;;;;;;;;;;;;;26.99;46.83;97717.41;5092985;28;19924;-73
2023/06/29 11:42:22;;;;;;;;;;;;;;;27.04;44.63;97723.38;5093000;28;19947;-72
2023/06/29 11:44:48;;;;;;;;;;;;;;;27.02;45.79;97719.44;5093054;28;19992;-72
2023/06/29 11:47:15;;;;;;;;;;;;;;;27.21;45.05;97713.72;5093278;28;19984;-72
2023/06/29 11:49:41;;;;;;;;;;;;;;;27.09;45.91;97709.31;5084528;28;19925;-72
2023/06/29 11:52:08;;;;;;;;;;;;;;;26.92;45.75;97717.34;5092807;28;19924;-72
2023/06/29 11:54:35;;;;;;;;;;;;;;;26.98;46.23;97702.94;5092533;28;19925;-72
2023/06/29 11:57:01;;;;;;;;;;;;;;;27.19;46.44;97700.41;5092992;28;19936;-71
2023/06/29 11:59:29;;;;;;;;;;;;;;;27.13;46.36;97698.38;5092227;28;19931;-72
2023/06/29 12:01:56;;;;;;;;;;;;;;;27.20;46.69;97699.22;5093055;28;19956;-73
2023/06/29 12:04:22;;;;;;;;;;;;;;;27.42;47.02;97697.47;5092924;28;19931;-72
2023/06/29 12:06:52;;;;;;;;;;;;;;;27.58;47.80;97700.00;5093275;28;19992;-71
2023/06/29 12:09:18;;;;;;;;;;;;;;;27.71;48.15;97696.59;5093205;28;19971;-72
2023/06/29 12:11:45;;;;;;;;;;;;;;;27.78;48.66;97687.63;5093398;28;19925;-73
2023/06/29 12:14:11;;;;;;;;;;;;;;;27.62;46.06;97696.13;5083573;28;19963;-72
2023/06/29 12:16:40;;;;;;;;;;;;;;;27.49;46.17;97683.88;5092881;28;19924;-72
2023/06/29 12:19:10;;;;;;;;;;;;;;;27.39;46.10;97687.25;5093158;28;20001;-72
2023/06/29 12:21:36;;;;;;;;;;;;;;;27.30;45.73;97686.78;5091992;28;19972;-72
2023/06/29 12:24:03;;;;;;;;;;;;;;;27.40;46.43;97677.09;5092950;28;19992;-72
2023/06/29 12:26:30;;;;;;;;;;;;;;;27.42;45.13;97672.03;5092986;28;19966;-72
2023/06/29 12:28:56;;;;;;;;;;;;;;;27.33;45.76;97664.91;5092395;28;19932;-72
2023/06/29 12:31:25;;;;;;;;;;;;;;;27.52;46.35;97661.16;5092716;28;19988;-72
2023/06/29 12:33:53;;;;;;;;;;;;;;;27.58;45.04;97654.16;5092689;28;19987;-73
2023/06/29 12:36:19;;;;;;;;;;;;;;;27.71;45.33;97655.44;5092250;28;19924;-72
2023/06/29 12:38:46;;;;;;;;;;;;;;;27.73;46.14;97653.09;5093042;28;19924;-72
2023/06/29 12:41:13;;;;;;;;;;;;;;;27.86;45.54;97651.63;5091957;28;19995;-73
2023/06/29 12:43:39;;;;;;;;;;;;;;;27.85;45.74;97654.75;5091717;28;19924;-71
2023/06/29 12:46:05;;;;;;;;;;;;;;;27.85;44.98;97647.28;5091704;28;19963;-72